Nearby METAR Reports

 

KTOP - Billard Municipal Airport, Topeka, Kansas, USA
Updated: Fri, 23-Jun-2017 6:53am CDT
Overcast
Overcast
 Wind from NNE
Wind: NNE 12 mph , 19 km/h, Gust: 23 mph , 37 km/h
Temperature: 73°F , 23°C
Dew Point: 64°F , 18°C
Humidity: 74%
Barometer: 29.79 inHg , 1008.8 hPa
Clouds: Overcast
Visibility: 10 miles , 16 km
Cloud details: Few Clouds 4900 ft
Overcast 6000 ft
2017/06/23 11:53 KTOP 231153Z 03010G20KT 10SM FEW049 OVC060 23/18 A2979 RMK AO2 SLP077 T02280178 10256 20228 53030
KFOE - Forbes Field Airport, Topeka, Kansas, USA
Updated: Fri, 23-Jun-2017 6:53am CDT
Overcast
Overcast
 Wind from NE
Wind: NE 15 mph , 24 km/h, Gust: 21 mph , 33 km/h
Temperature: 75°F , 24°C
Dew Point: 63°F , 17°C
Humidity: 65%
Barometer: 29.80 inHg , 1009.1 hPa
Clouds: Overcast
Visibility: 10 miles , 16 km
Cloud details: Partly cloudy 4500 ft
Overcast 6000 ft
2017/06/23 11:53 KFOE 231153Z 04013G18KT 10SM SCT045 OVC060 24/17 A2980 RMK AO2 SLP078 60004 70004 T02390172 10256 20233 53034